sensor_id;sensor_type;location;lat;lon;timestamp;temperature;humidity
46562;DHT22;32289;42.688;23.330;2023-02-08T00:03:25;-4.80;97.10
46562;DHT22;32289;42.688;23.330;2023-02-08T00:07:08;-4.80;97.10
46562;DHT22;32289;42.688;23.330;2023-02-08T00:10:49;-4.80;97.00
46562;DHT22;32289;42.688;23.330;2023-02-08T00:14:29;-4.60;96.70
46562;DHT22;32289;42.688;23.330;2023-02-08T00:18:10;-4.60;96.40
46562;DHT22;32289;42.688;23.330;2023-02-08T00:21:51;-4.60;96.60
46562;DHT22;32289;42.688;23.330;2023-02-08T00:25:31;-4.50;96.70
46562;DHT22;32289;42.688;23.330;2023-02-08T00:29:12;-4.50;96.20
46562;DHT22;32289;42.688;23.330;2023-02-08T00:32:56;-4.50;95.60
46562;DHT22;32289;42.688;23.330;2023-02-08T00:36:39;-4.60;95.70
46562;DHT22;32289;42.688;23.330;2023-02-08T00:40:20;-4.50;96.30
46562;DHT22;32289;42.688;23.330;2023-02-08T00:44:03;-4.70;96.30
46562;DHT22;32289;42.688;23.330;2023-02-08T00:47:44;-4.50;95.90
46562;DHT22;32289;42.688;23.330;2023-02-08T00:51:25;-4.60;96.10
46562;DHT22;32289;42.688;23.330;2023-02-08T00:55:07;-4.50;96.10
46562;DHT22;32289;42.688;23.330;2023-02-08T00:58:48;-4.50;95.90
46562;DHT22;32289;42.688;23.330;2023-02-08T01:02:28;-4.60;96.30
46562;DHT22;32289;42.688;23.330;2023-02-08T01:06:13;-4.50;96.60
46562;DHT22;32289;42.688;23.330;2023-02-08T01:09:54;-4.50;96.20
46562;DHT22;32289;42.688;23.330;2023-02-08T01:13:36;-4.40;96.50
46562;DHT22;32289;42.688;23.330;2023-02-08T01:17:17;-4.70;96.60
46562;DHT22;32289;42.688;23.330;2023-02-08T01:21:04;-4.60;97.00
46562;DHT22;32289;42.688;23.330;2023-02-08T01:24:45;-4.60;96.90
46562;DHT22;32289;42.688;23.330;2023-02-08T01:28:26;-4.60;97.10
46562;DHT22;32289;42.688;23.330;2023-02-08T01:32:07;-4.50;97.20
46562;DHT22;32289;42.688;23.330;2023-02-08T01:35:51;-4.60;97.50
46562;DHT22;32289;42.688;23.330;2023-02-08T01:39:32;-4.50;97.30
46562;DHT22;32289;42.688;23.330;2023-02-08T01:43:28;-4.50;97.80
46562;DHT22;32289;42.688;23.330;2023-02-08T01:47:09;-4.50;97.50
46562;DHT22;32289;42.688;23.330;2023-02-08T01:51:08;-4.50;97.90
46562;DHT22;32289;42.688;23.330;2023-02-08T01:55:02;-4.60;98.00
46562;DHT22;32289;42.688;23.330;2023-02-08T01:58:50;-4.50;98.10
46562;DHT22;32289;42.688;23.330;2023-02-08T02:02:32;-4.60;98.30
46562;DHT22;32289;42.688;23.330;2023-02-08T02:06:20;-4.50;97.80
46562;DHT22;32289;42.688;23.330;2023-02-08T02:10:18;-4.50;98.70
46562;DHT22;32289;42.688;23.330;2023-02-08T02:14:01;-4.60;98.80
46562;DHT22;32289;42.688;23.330;2023-02-08T02:17:42;-4.60;98.80
46562;DHT22;32289;42.688;23.330;2023-02-08T02:37:32;-4.50;99.90
46562;DHT22;32289;42.688;23.330;2023-02-08T02:42:22;-4.50;99.90
46562;DHT22;32289;42.688;23.330;2023-02-08T02:49:59;-4.40;99.60
46562;DHT22;32289;42.688;23.330;2023-02-08T02:54:15;-4.60;99.90
46562;DHT22;32289;42.688;23.330;2023-02-08T02:57:59;-4.60;99.90
46562;DHT22;32289;42.688;23.330;2023-02-08T03:01:43;-4.60;99.90
46562;DHT22;32289;42.688;23.330;2023-02-08T03:05:25;-4.90;99.90
46562;DHT22;32289;42.688;23.330;2023-02-08T03:21:28;-5.60;99.90
46562;DHT22;32289;42.688;23.330;2023-02-08T03:25:22;-5.20;99.90
46562;DHT22;32289;42.688;23.330;2023-02-08T03:37:35;-5.30;99.90
46562;DHT22;32289;42.688;23.330;2023-02-08T03:41:24;-5.20;99.90
46562;DHT22;32289;42.688;23.330;2023-02-08T03:45:29;-5.00;99.90
46562;DHT22;32289;42.688;23.330;2023-02-08T03:49:17;-5.20;99.90
46562;DHT22;32289;42.688;23.330;2023-02-08T03:53:01;-5.20;99.90
46562;DHT22;32289;42.688;23.330;2023-02-08T03:56:47;-5.30;99.90
46562;DHT22;32289;42.688;23.330;2023-02-08T04:00:32;-5.40;99.90
46562;DHT22;32289;42.688;23.330;2023-02-08T04:04:15;-5.40;99.90
46562;DHT22;32289;42.688;23.330;2023-02-08T04:07:58;-5.30;99.90
46562;DHT22;32289;42.688;23.330;2023-02-08T04:11:38;-5.40;99.90
46562;DHT22;32289;42.688;23.330;2023-02-08T04:15:19;-5.60;99.90
46562;DHT22;32289;42.688;23.330;2023-02-08T04:19:01;-5.60;99.90
46562;DHT22;32289;42.688;23.330;2023-02-08T04:22:42;-5.70;99.90
46562;DHT22;32289;42.688;23.330;2023-02-08T04:26:22;-5.90;99.90
46562;DHT22;32289;42.688;23.330;2023-02-08T04:30:04;-5.90;99.90
46562;DHT22;32289;42.688;23.330;2023-02-08T04:33:45;-5.80;99.90
46562;DHT22;32289;42.688;23.330;2023-02-08T04:37:26;-5.90;99.90
46562;DHT22;32289;42.688;23.330;2023-02-08T04:41:07;-5.80;99.90
46562;DHT22;32289;42.688;23.330;2023-02-08T04:44:48;-5.80;99.90
46562;DHT22;32289;42.688;23.330;2023-02-08T04:48:28;-5.60;99.90
46562;DHT22;32289;42.688;23.330;2023-02-08T04:52:09;-5.80;99.90
46562;DHT22;32289;42.688;23.330;2023-02-08T04:55:50;-5.80;99.90
46562;DHT22;32289;42.688;23.330;2023-02-08T04:59:31;-5.90;99.90
46562;DHT22;32289;42.688;23.330;2023-02-08T05:03:13;-6.00;99.90
46562;DHT22;32289;42.688;23.330;2023-02-08T05:06:54;-6.00;99.90
46562;DHT22;32289;42.688;23.330;2023-02-08T05:10:35;-6.20;99.90
46562;DHT22;32289;42.688;23.330;2023-02-08T05:14:15;-6.40;99.90
46562;DHT22;32289;42.688;23.330;2023-02-08T05:17:56;-6.50;99.90
46562;DHT22;32289;42.688;23.330;2023-02-08T05:21:37;-6.20;99.90
46562;DHT22;32289;42.688;23.330;2023-02-08T05:25:17;-6.10;99.90
46562;DHT22;32289;42.688;23.330;2023-02-08T05:28:58;-5.80;99.90
46562;DHT22;32289;42.688;23.330;2023-02-08T05:32:39;-5.80;99.90
46562;DHT22;32289;42.688;23.330;2023-02-08T05:36:22;-6.00;99.90
46562;DHT22;32289;42.688;23.330;2023-02-08T05:40:03;-6.10;99.90
46562;DHT22;32289;42.688;23.330;2023-02-08T05:43:44;-6.10;99.90
46562;DHT22;32289;42.688;23.330;2023-02-08T05:47:25;-5.90;99.90
46562;DHT22;32289;42.688;23.330;2023-02-08T05:51:06;-5.70;99.90
46562;DHT22;32289;42.688;23.330;2023-02-08T05:54:47;-5.70;99.90
46562;DHT22;32289;42.688;23.330;2023-02-08T05:58:27;-5.60;99.90
46562;DHT22;32289;42.688;23.330;2023-02-08T06:02:08;-5.50;99.90
46562;DHT22;32289;42.688;23.330;2023-02-08T06:05:48;-5.50;99.90
46562;DHT22;32289;42.688;23.330;2023-02-08T06:09:29;-5.50;99.90
46562;DHT22;32289;42.688;23.330;2023-02-08T06:13:12;-5.50;99.90
46562;DHT22;32289;42.688;23.330;2023-02-08T06:16:53;-5.30;99.90
46562;DHT22;32289;42.688;23.330;2023-02-08T06:20:34;-5.30;99.90
46562;DHT22;32289;42.688;23.330;2023-02-08T06:24:14;-5.20;99.90
46562;DHT22;32289;42.688;23.330;2023-02-08T06:27:56;-5.10;99.90
46562;DHT22;32289;42.688;23.330;2023-02-08T06:31:36;-5.00;99.90
46562;DHT22;32289;42.688;23.330;2023-02-08T06:35:17;-5.00;99.90
46562;DHT22;32289;42.688;23.330;2023-02-08T06:38:58;-5.10;99.90
46562;DHT22;32289;42.688;23.330;2023-02-08T06:42:39;-5.10;99.90
46562;DHT22;32289;42.688;23.330;2023-02-08T06:46:19;-5.10;99.90
46562;DHT22;32289;42.688;23.330;2023-02-08T06:50:02;-5.00;99.90
46562;DHT22;32289;42.688;23.330;2023-02-08T06:53:43;-4.90;99.90
46562;DHT22;32289;42.688;23.330;2023-02-08T06:57:24;-4.80;99.90
46562;DHT22;32289;42.688;23.330;2023-02-08T07:01:05;-4.70;99.90
46562;DHT22;32289;42.688;23.330;2023-02-08T07:04:46;-4.70;99.90
46562;DHT22;32289;42.688;23.330;2023-02-08T07:08:27;-4.70;99.90
46562;DHT22;32289;42.688;23.330;2023-02-08T07:12:11;-4.70;99.80
46562;DHT22;32289;42.688;23.330;2023-02-08T07:15:51;-4.70;99.10
46562;DHT22;32289;42.688;23.330;2023-02-08T07:19:32;-4.50;98.20
46562;DHT22;32289;42.688;23.330;2023-02-08T07:23:13;-4.60;97.50
46562;DHT22;32289;42.688;23.330;2023-02-08T07:26:53;-4.70;97.10
46562;DHT22;32289;42.688;23.330;2023-02-08T07:30:34;-4.60;96.30
46562;DHT22;32289;42.688;23.330;2023-02-08T07:34:15;-4.50;96.50
46562;DHT22;32289;42.688;23.330;2023-02-08T07:38:01;-4.30;95.90
46562;DHT22;32289;42.688;23.330;2023-02-08T07:41:41;-4.10;95.50
46562;DHT22;32289;42.688;23.330;2023-02-08T07:45:22;-4.10;94.80
46562;DHT22;32289;42.688;23.330;2023-02-08T07:49:03;-4.20;94.10
46562;DHT22;32289;42.688;23.330;2023-02-08T07:52:44;-4.00;93.60
46562;DHT22;32289;42.688;23.330;2023-02-08T07:56:25;-4.40;93.70
46562;DHT22;32289;42.688;23.330;2023-02-08T08:00:07;-4.60;94.50
46562;DHT22;32289;42.688;23.330;2023-02-08T08:03:51;-4.30;93.40
46562;DHT22;32289;42.688;23.330;2023-02-08T08:07:32;-4.00;92.90
46562;DHT22;32289;42.688;23.330;2023-02-08T08:11:16;-3.20;91.30
46562;DHT22;32289;42.688;23.330;2023-02-08T08:14:57;-3.10;90.10
46562;DHT22;32289;42.688;23.330;2023-02-08T08:18:38;-2.50;90.30
46562;DHT22;32289;42.688;23.330;2023-02-08T08:22:18;4.00;67.90
46562;DHT22;32289;42.688;23.330;2023-02-08T08:25:59;2.80;59.50
46562;DHT22;32289;42.688;23.330;2023-02-08T08:29:40;3.70;59.00
46562;DHT22;32289;42.688;23.330;2023-02-08T08:33:21;4.10;59.60
46562;DHT22;32289;42.688;23.330;2023-02-08T08:37:02;2.70;59.10
46562;DHT22;32289;42.688;23.330;2023-02-08T08:40:42;4.00;55.80
46562;DHT22;32289;42.688;23.330;2023-02-08T08:44:23;4.60;56.90
46562;DHT22;32289;42.688;23.330;2023-02-08T08:48:04;4.30;55.50
46562;DHT22;32289;42.688;23.330;2023-02-08T08:51:44;4.20;55.90
46562;DHT22;32289;42.688;23.330;2023-02-08T08:55:26;4.40;56.60
46562;DHT22;32289;42.688;23.330;2023-02-08T08:59:07;5.10;54.00
46562;DHT22;32289;42.688;23.330;2023-02-08T09:02:48;5.50;52.90
46562;DHT22;32289;42.688;23.330;2023-02-08T09:06:29;5.10;52.10
46562;DHT22;32289;42.688;23.330;2023-02-08T09:10:09;4.50;53.10
46562;DHT22;32289;42.688;23.330;2023-02-08T09:13:50;5.00;52.70
46562;DHT22;32289;42.688;23.330;2023-02-08T09:17:33;4.90;54.00
46562;DHT22;32289;42.688;23.330;2023-02-08T09:21:17;5.90;51.40
46562;DHT22;32289;42.688;23.330;2023-02-08T09:24:58;4.10;53.20
46562;DHT22;32289;42.688;23.330;2023-02-08T09:28:41;5.20;53.80
46562;DHT22;32289;42.688;23.330;2023-02-08T09:32:22;3.30;56.00
46562;DHT22;32289;42.688;23.330;2023-02-08T09:36:04;1.40;58.80
46562;DHT22;32289;42.688;23.330;2023-02-08T09:39:45;2.70;58.60
46562;DHT22;32289;42.688;23.330;2023-02-08T09:43:44;3.90;57.80
46562;DHT22;32289;42.688;23.330;2023-02-08T09:47:41;4.60;55.80
46562;DHT22;32289;42.688;23.330;2023-02-08T09:59:01;1.30;59.50
46562;DHT22;32289;42.688;23.330;2023-02-08T10:02:43;1.60;60.60
46562;DHT22;32289;42.688;23.330;2023-02-08T10:06:26;1.80;58.50
46562;DHT22;32289;42.688;23.330;2023-02-08T10:10:40;2.20;59.10
46562;DHT22;32289;42.688;23.330;2023-02-08T10:18:23;1.10;61.70
46562;DHT22;32289;42.688;23.330;2023-02-08T10:26:19;1.60;59.80
46562;DHT22;32289;42.688;23.330;2023-02-08T10:30:27;1.80;58.60
46562;DHT22;32289;42.688;23.330;2023-02-08T10:38:24;1.00;60.10
46562;DHT22;32289;42.688;23.330;2023-02-08T10:42:14;1.10;61.10
46562;DHT22;32289;42.688;23.330;2023-02-08T10:50:06;-0.30;64.70
46562;DHT22;32289;42.688;23.330;2023-02-08T10:53:52;-0.30;64.30
46562;DHT22;32289;42.688;23.330;2023-02-08T10:57:34;-0.60;65.90
46562;DHT22;32289;42.688;23.330;2023-02-08T11:01:15;-0.60;66.70
46562;DHT22;32289;42.688;23.330;2023-02-08T11:05:05;-0.70;67.30
46562;DHT22;32289;42.688;23.330;2023-02-08T11:08:56;-0.90;68.80
46562;DHT22;32289;42.688;23.330;2023-02-08T11:12:39;-0.70;69.10
46562;DHT22;32289;42.688;23.330;2023-02-08T11:16:22;-1.20;69.30
46562;DHT22;32289;42.688;23.330;2023-02-08T11:20:03;-0.90;70.40
46562;DHT22;32289;42.688;23.330;2023-02-08T11:23:49;-1.00;70.90
46562;DHT22;32289;42.688;23.330;2023-02-08T11:27:36;-1.40;71.10
46562;DHT22;32289;42.688;23.330;2023-02-08T11:31:20;-1.00;70.80
46562;DHT22;32289;42.688;23.330;2023-02-08T11:35:17;-1.20;71.70
46562;DHT22;32289;42.688;23.330;2023-02-08T11:39:30;-0.60;69.20
46562;DHT22;32289;42.688;23.330;2023-02-08T11:43:27;-1.10;69.80
46562;DHT22;32289;42.688;23.330;2023-02-08T11:47:14;-1.30;70.80
46562;DHT22;32289;42.688;23.330;2023-02-08T11:50:58;-1.30;70.90
46562;DHT22;32289;42.688;23.330;2023-02-08T11:54:40;-0.30;70.30
46562;DHT22;32289;42.688;23.330;2023-02-08T11:58:24;-0.50;69.50
46562;DHT22;32289;42.688;23.330;2023-02-08T12:02:26;-0.70;70.00
46562;DHT22;32289;42.688;23.330;2023-02-08T12:27:34;-1.10;71.90
46562;DHT22;32289;42.688;23.330;2023-02-08T12:31:32;-1.50;70.80
46562;DHT22;32289;42.688;23.330;2023-02-08T12:44:00;-1.10;67.80
46562;DHT22;32289;42.688;23.330;2023-02-08T12:47:56;-1.00;67.30
46562;DHT22;32289;42.688;23.330;2023-02-08T12:51:49;-1.50;65.50
46562;DHT22;32289;42.688;23.330;2023-02-08T12:55:35;-1.40;67.80
46562;DHT22;32289;42.688;23.330;2023-02-08T12:59:27;-1.10;66.70
46562;DHT22;32289;42.688;23.330;2023-02-08T13:07:17;-1.60;66.40
46562;DHT22;32289;42.688;23.330;2023-02-08T13:11:05;-1.70;66.90
46562;DHT22;32289;42.688;23.330;2023-02-08T13:22:52;-1.30;64.50
46562;DHT22;32289;42.688;23.330;2023-02-08T13:26:36;-1.50;64.30
46562;DHT22;32289;42.688;23.330;2023-02-08T13:30:19;-1.40;64.00
46562;DHT22;32289;42.688;23.330;2023-02-08T13:34:27;-1.20;64.50
46562;DHT22;32289;42.688;23.330;2023-02-08T13:41:59;-1.30;66.90
46562;DHT22;32289;42.688;23.330;2023-02-08T13:45:43;-1.50;66.90
46562;DHT22;32289;42.688;23.330;2023-02-08T13:58:02;-1.80;69.60
46562;DHT22;32289;42.688;23.330;2023-02-08T14:05:57;-1.80;69.00
46562;DHT22;32289;42.688;23.330;2023-02-08T14:17:28;-1.90;69.40
46562;DHT22;32289;42.688;23.330;2023-02-08T14:21:26;-1.90;69.50
46562;DHT22;32289;42.688;23.330;2023-02-08T14:25:44;-1.90;70.60
46562;DHT22;32289;42.688;23.330;2023-02-08T14:29:26;-1.90;71.30
46562;DHT22;32289;42.688;23.330;2023-02-08T14:33:10;-1.40;73.90
46562;DHT22;32289;42.688;23.330;2023-02-08T14:37:02;-1.90;73.20
46562;DHT22;32289;42.688;23.330;2023-02-08T14:40:55;-2.00;73.20
46562;DHT22;32289;42.688;23.330;2023-02-08T14:48:36;-2.40;73.90
46562;DHT22;32289;42.688;23.330;2023-02-08T14:52:23;-2.50;74.30
46562;DHT22;32289;42.688;23.330;2023-02-08T14:56:14;-2.60;76.70
46562;DHT22;32289;42.688;23.330;2023-02-08T14:59:58;-2.70;78.30
46562;DHT22;32289;42.688;23.330;2023-02-08T15:03:40;-2.70;78.60
46562;DHT22;32289;42.688;23.330;2023-02-08T15:11:19;-2.90;79.30
46562;DHT22;32289;42.688;23.330;2023-02-08T15:15:01;-2.80;78.30
46562;DHT22;32289;42.688;23.330;2023-02-08T15:18:45;-2.80;78.10
46562;DHT22;32289;42.688;23.330;2023-02-08T15:22:31;-2.70;78.40
46562;DHT22;32289;42.688;23.330;2023-02-08T15:26:21;-2.80;78.00
46562;DHT22;32289;42.688;23.330;2023-02-08T15:30:02;-2.80;77.20
46562;DHT22;32289;42.688;23.330;2023-02-08T15:33:43;-3.20;75.80
46562;DHT22;32289;42.688;23.330;2023-02-08T15:37:29;-3.30;76.00
46562;DHT22;32289;42.688;23.330;2023-02-08T15:41:13;-3.50;77.00
46562;DHT22;32289;42.688;23.330;2023-02-08T15:44:55;-3.40;76.90
46562;DHT22;32289;42.688;23.330;2023-02-08T15:48:37;-3.30;76.80
46562;DHT22;32289;42.688;23.330;2023-02-08T15:52:21;-3.40;76.60
46562;DHT22;32289;42.688;23.330;2023-02-08T15:56:03;-3.60;77.10
46562;DHT22;32289;42.688;23.330;2023-02-08T15:59:46;-3.60;77.90
46562;DHT22;32289;42.688;23.330;2023-02-08T16:03:28;-3.50;77.60
46562;DHT22;32289;42.688;23.330;2023-02-08T16:11:12;-3.70;78.40
46562;DHT22;32289;42.688;23.330;2023-02-08T16:14:55;-3.90;79.20
46562;DHT22;32289;42.688;23.330;2023-02-08T16:18:43;-3.90;80.00
46562;DHT22;32289;42.688;23.330;2023-02-08T16:22:35;-4.00;80.30
46562;DHT22;32289;42.688;23.330;2023-02-08T16:26:39;-4.00;80.90
46562;DHT22;32289;42.688;23.330;2023-02-08T16:30:21;-4.00;81.40
46562;DHT22;32289;42.688;23.330;2023-02-08T16:34:12;-3.80;81.60
46562;DHT22;32289;42.688;23.330;2023-02-08T16:37:55;-4.00;81.70
46562;DHT22;32289;42.688;23.330;2023-02-08T16:45:36;-3.90;81.50
46562;DHT22;32289;42.688;23.330;2023-02-08T16:49:17;-3.90;81.90
46562;DHT22;32289;42.688;23.330;2023-02-08T16:53:00;-4.00;82.20
46562;DHT22;32289;42.688;23.330;2023-02-08T16:56:42;-3.90;83.00
46562;DHT22;32289;42.688;23.330;2023-02-08T17:00:25;-3.90;83.50
46562;DHT22;32289;42.688;23.330;2023-02-08T17:04:07;-4.00;82.90
46562;DHT22;32289;42.688;23.330;2023-02-08T17:07:49;-4.00;83.60
46562;DHT22;32289;42.688;23.330;2023-02-08T17:11:30;-4.10;84.20
46562;DHT22;32289;42.688;23.330;2023-02-08T17:15:11;-4.10;85.40
46562;DHT22;32289;42.688;23.330;2023-02-08T17:18:52;-4.10;85.20
46562;DHT22;32289;42.688;23.330;2023-02-08T17:22:33;-4.20;86.20
46562;DHT22;32289;42.688;23.330;2023-02-08T17:26:19;-4.20;85.80
46562;DHT22;32289;42.688;23.330;2023-02-08T17:30:02;-4.30;86.70
46562;DHT22;32289;42.688;23.330;2023-02-08T17:33:43;-4.20;88.10
46562;DHT22;32289;42.688;23.330;2023-02-08T17:37:26;-4.30;88.20
46562;DHT22;32289;42.688;23.330;2023-02-08T17:41:16;-4.30;89.70
46562;DHT22;32289;42.688;23.330;2023-02-08T17:44:58;-4.40;89.40
46562;DHT22;32289;42.688;23.330;2023-02-08T17:48:38;-4.30;90.60
46562;DHT22;32289;42.688;23.330;2023-02-08T17:52:19;-4.40;90.40
46562;DHT22;32289;42.688;23.330;2023-02-08T17:56:00;-4.30;91.10
46562;DHT22;32289;42.688;23.330;2023-02-08T17:59:41;-4.30;90.60
46562;DHT22;32289;42.688;23.330;2023-02-08T18:03:24;-4.30;90.80
46562;DHT22;32289;42.688;23.330;2023-02-08T18:07:04;-4.40;91.00
46562;DHT22;32289;42.688;23.330;2023-02-08T18:10:45;-4.40;91.10
46562;DHT22;32289;42.688;23.330;2023-02-08T18:14:26;-4.40;91.30
46562;DHT22;32289;42.688;23.330;2023-02-08T18:18:07;-4.50;91.20
46562;DHT22;32289;42.688;23.330;2023-02-08T18:21:47;-4.50;91.40
46562;DHT22;32289;42.688;23.330;2023-02-08T18:25:28;-4.60;91.90
46562;DHT22;32289;42.688;23.330;2023-02-08T18:29:09;-4.60;91.40
46562;DHT22;32289;42.688;23.330;2023-02-08T18:32:50;-4.80;91.90
46562;DHT22;32289;42.688;23.330;2023-02-08T18:36:31;-4.80;92.30
46562;DHT22;32289;42.688;23.330;2023-02-08T18:40:11;-4.70;92.10
46562;DHT22;32289;42.688;23.330;2023-02-08T18:43:53;-4.60;92.30
46562;DHT22;32289;42.688;23.330;2023-02-08T18:47:36;-4.70;91.90
46562;DHT22;32289;42.688;23.330;2023-02-08T18:51:17;-4.60;92.10
46562;DHT22;32289;42.688;23.330;2023-02-08T18:54:59;-4.50;92.00
46562;DHT22;32289;42.688;23.330;2023-02-08T18:58:40;-4.60;91.80
46562;DHT22;32289;42.688;23.330;2023-02-08T19:02:21;-4.80;92.10
46562;DHT22;32289;42.688;23.330;2023-02-08T19:06:07;-4.60;92.60
46562;DHT22;32289;42.688;23.330;2023-02-08T19:09:48;-4.60;92.80
46562;DHT22;32289;42.688;23.330;2023-02-08T19:13:29;-4.60;92.10
46562;DHT22;32289;42.688;23.330;2023-02-08T19:17:10;-4.70;92.00
46562;DHT22;32289;42.688;23.330;2023-02-08T19:20:50;-4.80;93.20
46562;DHT22;32289;42.688;23.330;2023-02-08T19:24:31;-4.70;92.20
46562;DHT22;32289;42.688;23.330;2023-02-08T19:28:12;-4.50;93.30
46562;DHT22;32289;42.688;23.330;2023-02-08T19:31:52;-4.60;92.50
46562;DHT22;32289;42.688;23.330;2023-02-08T19:35:36;-4.80;92.50
46562;DHT22;32289;42.688;23.330;2023-02-08T19:39:20;-4.90;92.90
46562;DHT22;32289;42.688;23.330;2023-02-08T19:43:01;-4.80;93.30
46562;DHT22;32289;42.688;23.330;2023-02-08T19:46:49;-4.90;93.60
46562;DHT22;32289;42.688;23.330;2023-02-08T19:50:30;-4.80;93.80
46562;DHT22;32289;42.688;23.330;2023-02-08T19:54:14;-4.80;94.40
46562;DHT22;32289;42.688;23.330;2023-02-08T19:57:55;-4.80;94.40
46562;DHT22;32289;42.688;23.330;2023-02-08T20:01:35;-4.90;94.20
46562;DHT22;32289;42.688;23.330;2023-02-08T20:05:16;-4.90;93.90
46562;DHT22;32289;42.688;23.330;2023-02-08T20:08:57;-5.10;93.90
46562;DHT22;32289;42.688;23.330;2023-02-08T20:12:39;-4.90;95.70
46562;DHT22;32289;42.688;23.330;2023-02-08T20:16:21;-4.90;95.30
46562;DHT22;32289;42.688;23.330;2023-02-08T20:20:02;-5.00;95.30
46562;DHT22;32289;42.688;23.330;2023-02-08T20:23:43;-5.10;95.30
46562;DHT22;32289;42.688;23.330;2023-02-08T20:27:25;-5.20;95.50
46562;DHT22;32289;42.688;23.330;2023-02-08T20:31:14;-5.30;96.70
46562;DHT22;32289;42.688;23.330;2023-02-08T20:34:55;-5.10;96.00
46562;DHT22;32289;42.688;23.330;2023-02-08T20:38:36;-5.30;96.20
46562;DHT22;32289;42.688;23.330;2023-02-08T20:42:17;-5.30;97.00
46562;DHT22;32289;42.688;23.330;2023-02-08T20:45:59;-5.20;96.90
46562;DHT22;32289;42.688;23.330;2023-02-08T20:49:39;-5.30;96.90
46562;DHT22;32289;42.688;23.330;2023-02-08T20:53:21;-5.20;97.70
46562;DHT22;32289;42.688;23.330;2023-02-08T20:57:02;-5.20;97.10
46562;DHT22;32289;42.688;23.330;2023-02-08T21:00:43;-5.20;98.00
46562;DHT22;32289;42.688;23.330;2023-02-08T21:04:23;-5.20;99.30
46562;DHT22;32289;42.688;23.330;2023-02-08T21:08:05;-5.20;97.90
46562;DHT22;32289;42.688;23.330;2023-02-08T21:11:46;-5.20;99.20
46562;DHT22;32289;42.688;23.330;2023-02-08T21:15:27;-5.20;98.40
46562;DHT22;32289;42.688;23.330;2023-02-08T21:19:08;-5.30;98.70
46562;DHT22;32289;42.688;23.330;2023-02-08T21:22:50;-5.30;98.90
46562;DHT22;32289;42.688;23.330;2023-02-08T21:26:30;-5.40;98.70
46562;DHT22;32289;42.688;23.330;2023-02-08T21:30:11;-5.60;98.10
46562;DHT22;32289;42.688;23.330;2023-02-08T21:33:52;-5.60;98.70
46562;DHT22;32289;42.688;23.330;2023-02-08T21:37:33;-5.70;98.10
46562;DHT22;32289;42.688;23.330;2023-02-08T21:41:20;-5.40;98.90
46562;DHT22;32289;42.688;23.330;2023-02-08T21:45:01;-5.50;98.70
46562;DHT22;32289;42.688;23.330;2023-02-08T21:48:41;-5.50;98.50
46562;DHT22;32289;42.688;23.330;2023-02-08T21:52:40;-5.60;98.80
46562;DHT22;32289;42.688;23.330;2023-02-08T21:56:40;-5.70;99.60
46562;DHT22;32289;42.688;23.330;2023-02-08T22:00:21;-5.60;99.90
46562;DHT22;32289;42.688;23.330;2023-02-08T22:04:02;-5.50;99.90
46562;DHT22;32289;42.688;23.330;2023-02-08T22:07:51;-5.50;99.90
46562;DHT22;32289;42.688;23.330;2023-02-08T22:11:33;-5.50;99.90
46562;DHT22;32289;42.688;23.330;2023-02-08T22:15:18;-5.80;99.90
46562;DHT22;32289;42.688;23.330;2023-02-08T22:18:59;-5.80;99.90
46562;DHT22;32289;42.688;23.330;2023-02-08T22:22:40;-5.70;99.90
46562;DHT22;32289;42.688;23.330;2023-02-08T22:26:21;-5.70;99.90
46562;DHT22;32289;42.688;23.330;2023-02-08T22:30:02;-5.90;99.90
46562;DHT22;32289;42.688;23.330;2023-02-08T22:33:42;-5.80;99.90
46562;DHT22;32289;42.688;23.330;2023-02-08T22:37:23;-5.90;99.90
46562;DHT22;32289;42.688;23.330;2023-02-08T22:41:15;-6.00;99.90
46562;DHT22;32289;42.688;23.330;2023-02-08T22:44:56;-6.00;99.90
46562;DHT22;32289;42.688;23.330;2023-02-08T22:48:36;-6.00;99.90
46562;DHT22;32289;42.688;23.330;2023-02-08T22:52:17;-6.00;99.90
46562;DHT22;32289;42.688;23.330;2023-02-08T22:55:58;-6.10;99.90
46562;DHT22;32289;42.688;23.330;2023-02-08T22:59:39;-6.00;99.90
46562;DHT22;32289;42.688;23.330;2023-02-08T23:03:19;-6.10;99.90
46562;DHT22;32289;42.688;23.330;2023-02-08T23:07:00;-6.00;99.90
46562;DHT22;32289;42.688;23.330;2023-02-08T23:10:41;-5.90;99.90
46562;DHT22;32289;42.688;23.330;2023-02-08T23:14:22;-6.10;99.90
46562;DHT22;32289;42.688;23.330;2023-02-08T23:18:06;-6.10;99.90
46562;DHT22;32289;42.688;23.330;2023-02-08T23:21:47;-6.10;99.90
46562;DHT22;32289;42.688;23.330;2023-02-08T23:25:31;-6.10;99.90
46562;DHT22;32289;42.688;23.330;2023-02-08T23:29:12;-6.00;99.90
46562;DHT22;32289;42.688;23.330;2023-02-08T23:32:52;-6.00;99.90
46562;DHT22;32289;42.688;23.330;2023-02-08T23:36:33;-6.10;99.90
46562;DHT22;32289;42.688;23.330;2023-02-08T23:40:14;-6.00;99.90
46562;DHT22;32289;42.688;23.330;2023-02-08T23:43:55;-6.10;99.90
46562;DHT22;32289;42.688;23.330;2023-02-08T23:47:36;-6.20;99.90
46562;DHT22;32289;42.688;23.330;2023-02-08T23:51:19;-6.20;99.90
46562;DHT22;32289;42.688;23.330;2023-02-08T23:55:00;-6.20;99.90
46562;DHT22;32289;42.688;23.330;2023-02-08T23:58:42;-6.30;99.90
